sensor_id;sensor_type;location;lat;lon;timestamp;P1;durP1;ratioP1;P2;durP2;ratioP2
43835;SDS011;39345;43.964;25.340;2024-01-15T00:01:32;9.73;;;5.30;;
43835;SDS011;39345;43.964;25.340;2024-01-15T00:04:00;10.40;;;5.57;;
43835;SDS011;39345;43.964;25.340;2024-01-15T00:06:27;12.45;;;6.03;;
43835;SDS011;39345;43.964;25.340;2024-01-15T00:08:55;11.77;;;6.00;;
43835;SDS011;39345;43.964;25.340;2024-01-15T00:11:24;12.27;;;5.90;;
43835;SDS011;39345;43.964;25.340;2024-01-15T00:13:52;11.90;;;6.57;;
43835;SDS011;39345;43.964;25.340;2024-01-15T00:16:20;12.98;;;5.93;;
43835;SDS011;39345;43.964;25.340;2024-01-15T00:18:48;11.63;;;6.13;;
43835;SDS011;39345;43.964;25.340;2024-01-15T00:21:15;11.18;;;6.07;;
43835;SDS011;39345;43.964;25.340;2024-01-15T00:23:43;12.65;;;6.20;;
43835;SDS011;39345;43.964;25.340;2024-01-15T00:26:11;10.98;;;6.38;;
43835;SDS011;39345;43.964;25.340;2024-01-15T00:28:39;9.82;;;5.25;;
43835;SDS011;39345;43.964;25.340;2024-01-15T00:31:06;13.45;;;6.97;;
43835;SDS011;39345;43.964;25.340;2024-01-15T00:33:34;11.05;;;5.95;;
43835;SDS011;39345;43.964;25.340;2024-01-15T00:36:02;9.52;;;5.65;;
43835;SDS011;39345;43.964;25.340;2024-01-15T00:38:30;11.38;;;5.95;;
43835;SDS011;39345;43.964;25.340;2024-01-15T00:40:58;10.75;;;5.95;;
43835;SDS011;39345;43.964;25.340;2024-01-15T00:43:25;9.48;;;5.35;;
43835;SDS011;39345;43.964;25.340;2024-01-15T00:45:53;10.32;;;5.28;;
43835;SDS011;39345;43.964;25.340;2024-01-15T00:48:20;9.38;;;5.50;;
43835;SDS011;39345;43.964;25.340;2024-01-15T00:50:48;9.95;;;5.30;;
43835;SDS011;39345;43.964;25.340;2024-01-15T00:53:16;10.82;;;5.95;;
43835;SDS011;39345;43.964;25.340;2024-01-15T00:55:44;12.27;;;6.00;;
43835;SDS011;39345;43.964;25.340;2024-01-15T00:58:11;10.77;;;5.57;;
43835;SDS011;39345;43.964;25.340;2024-01-15T01:00:39;10.82;;;5.63;;
43835;SDS011;39345;43.964;25.340;2024-01-15T01:03:07;9.82;;;6.10;;
43835;SDS011;39345;43.964;25.340;2024-01-15T01:05:35;10.73;;;5.85;;
43835;SDS011;39345;43.964;25.340;2024-01-15T01:08:04;10.50;;;5.38;;
43835;SDS011;39345;43.964;25.340;2024-01-15T01:10:31;9.88;;;5.43;;
43835;SDS011;39345;43.964;25.340;2024-01-15T01:12:59;9.50;;;5.40;;
43835;SDS011;39345;43.964;25.340;2024-01-15T01:15:27;13.27;;;6.15;;
43835;SDS011;39345;43.964;25.340;2024-01-15T01:17:54;11.25;;;6.10;;
43835;SDS011;39345;43.964;25.340;2024-01-15T01:20:22;13.48;;;5.68;;
43835;SDS011;39345;43.964;25.340;2024-01-15T01:22:50;12.73;;;5.57;;
43835;SDS011;39345;43.964;25.340;2024-01-15T01:25:18;11.57;;;5.57;;
43835;SDS011;39345;43.964;25.340;2024-01-15T01:27:45;12.18;;;6.30;;
43835;SDS011;39345;43.964;25.340;2024-01-15T01:30:13;11.02;;;5.63;;
43835;SDS011;39345;43.964;25.340;2024-01-15T01:32:41;13.73;;;7.15;;
43835;SDS011;39345;43.964;25.340;2024-01-15T01:35:08;11.27;;;6.13;;
43835;SDS011;39345;43.964;25.340;2024-01-15T01:37:36;12.40;;;6.40;;
43835;SDS011;39345;43.964;25.340;2024-01-15T01:40:04;13.20;;;6.50;;
43835;SDS011;39345;43.964;25.340;2024-01-15T01:42:33;13.95;;;6.40;;
43835;SDS011;39345;43.964;25.340;2024-01-15T01:45:00;13.95;;;6.40;;
43835;SDS011;39345;43.964;25.340;2024-01-15T01:47:28;10.82;;;6.15;;
43835;SDS011;39345;43.964;25.340;2024-01-15T01:49:55;10.80;;;5.65;;
43835;SDS011;39345;43.964;25.340;2024-01-15T01:52:23;11.40;;;6.15;;
43835;SDS011;39345;43.964;25.340;2024-01-15T01:54:51;14.07;;;6.68;;
43835;SDS011;39345;43.964;25.340;2024-01-15T01:57:19;11.77;;;5.97;;
43835;SDS011;39345;43.964;25.340;2024-01-15T01:59:47;13.52;;;6.88;;
43835;SDS011;39345;43.964;25.340;2024-01-15T02:02:14;14.25;;;7.20;;
43835;SDS011;39345;43.964;25.340;2024-01-15T02:04:42;13.75;;;6.40;;
43835;SDS011;39345;43.964;25.340;2024-01-15T02:07:11;10.73;;;6.05;;
43835;SDS011;39345;43.964;25.340;2024-01-15T02:09:38;13.10;;;5.88;;
43835;SDS011;39345;43.964;25.340;2024-01-15T02:12:06;13.18;;;6.32;;
43835;SDS011;39345;43.964;25.340;2024-01-15T02:14:34;13.98;;;6.22;;
43835;SDS011;39345;43.964;25.340;2024-01-15T02:17:01;13.68;;;6.97;;
43835;SDS011;39345;43.964;25.340;2024-01-15T02:19:29;12.40;;;6.15;;
43835;SDS011;39345;43.964;25.340;2024-01-15T02:21:57;10.00;;;5.65;;
43835;SDS011;39345;43.964;25.340;2024-01-15T02:24:24;13.98;;;6.45;;
43835;SDS011;39345;43.964;25.340;2024-01-15T02:26:52;12.23;;;6.07;;
43835;SDS011;39345;43.964;25.340;2024-01-15T02:29:20;10.15;;;5.72;;
43835;SDS011;39345;43.964;25.340;2024-01-15T02:31:47;12.40;;;6.10;;
43835;SDS011;39345;43.964;25.340;2024-01-15T02:34:15;12.93;;;6.10;;
43835;SDS011;39345;43.964;25.340;2024-01-15T02:36:42;11.50;;;6.10;;
43835;SDS011;39345;43.964;25.340;2024-01-15T02:39:10;11.02;;;6.22;;
43835;SDS011;39345;43.964;25.340;2024-01-15T02:41:38;12.40;;;6.22;;
43835;SDS011;39345;43.964;25.340;2024-01-15T02:44:06;13.02;;;7.15;;
43835;SDS011;39345;43.964;25.340;2024-01-15T02:46:33;11.52;;;6.28;;
43835;SDS011;39345;43.964;25.340;2024-01-15T02:49:01;10.13;;;5.65;;
43835;SDS011;39345;43.964;25.340;2024-01-15T02:51:28;11.00;;;5.80;;
43835;SDS011;39345;43.964;25.340;2024-01-15T02:53:56;11.75;;;6.68;;
43835;SDS011;39345;43.964;25.340;2024-01-15T02:56:24;11.68;;;6.40;;
43835;SDS011;39345;43.964;25.340;2024-01-15T02:58:51;13.95;;;6.88;;
43835;SDS011;39345;43.964;25.340;2024-01-15T03:01:19;11.60;;;6.47;;
43835;SDS011;39345;43.964;25.340;2024-01-15T03:03:47;10.23;;;5.75;;
43835;SDS011;39345;43.964;25.340;2024-01-15T03:06:15;12.05;;;6.28;;
43835;SDS011;39345;43.964;25.340;2024-01-15T03:08:42;12.00;;;6.53;;
43835;SDS011;39345;43.964;25.340;2024-01-15T03:11:10;12.18;;;6.05;;
43835;SDS011;39345;43.964;25.340;2024-01-15T03:13:37;12.35;;;6.97;;
43835;SDS011;39345;43.964;25.340;2024-01-15T03:16:05;10.68;;;6.30;;
43835;SDS011;39345;43.964;25.340;2024-01-15T03:18:32;13.65;;;6.63;;
43835;SDS011;39345;43.964;25.340;2024-01-15T03:21:00;12.93;;;7.32;;
43835;SDS011;39345;43.964;25.340;2024-01-15T03:23:28;12.40;;;6.40;;
43835;SDS011;39345;43.964;25.340;2024-01-15T03:25:56;10.52;;;6.18;;
43835;SDS011;39345;43.964;25.340;2024-01-15T03:28:23;10.57;;;6.18;;
43835;SDS011;39345;43.964;25.340;2024-01-15T03:30:51;11.57;;;6.75;;
43835;SDS011;39345;43.964;25.340;2024-01-15T03:33:18;13.38;;;6.88;;
43835;SDS011;39345;43.964;25.340;2024-01-15T03:35:46;11.52;;;6.38;;
43835;SDS011;39345;43.964;25.340;2024-01-15T03:38:14;11.25;;;6.10;;
43835;SDS011;39345;43.964;25.340;2024-01-15T03:40:41;11.55;;;6.50;;
43835;SDS011;39345;43.964;25.340;2024-01-15T03:43:09;12.15;;;6.70;;
43835;SDS011;39345;43.964;25.340;2024-01-15T03:45:37;12.75;;;6.35;;
43835;SDS011;39345;43.964;25.340;2024-01-15T03:48:05;12.10;;;6.82;;
43835;SDS011;39345;43.964;25.340;2024-01-15T03:50:33;15.00;;;6.93;;
43835;SDS011;39345;43.964;25.340;2024-01-15T03:53:00;12.95;;;7.18;;
43835;SDS011;39345;43.964;25.340;2024-01-15T03:55:28;15.60;;;7.28;;
43835;SDS011;39345;43.964;25.340;2024-01-15T03:57:55;12.65;;;7.07;;
43835;SDS011;39345;43.964;25.340;2024-01-15T04:00:23;14.23;;;7.00;;
43835;SDS011;39345;43.964;25.340;2024-01-15T04:02:51;17.48;;;8.23;;
43835;SDS011;39345;43.964;25.340;2024-01-15T04:05:18;13.50;;;7.97;;
43835;SDS011;39345;43.964;25.340;2024-01-15T04:07:46;15.20;;;7.82;;
43835;SDS011;39345;43.964;25.340;2024-01-15T04:10:14;14.38;;;7.28;;
43835;SDS011;39345;43.964;25.340;2024-01-15T04:12:41;15.77;;;7.45;;
43835;SDS011;39345;43.964;25.340;2024-01-15T04:15:09;14.05;;;7.30;;
43835;SDS011;39345;43.964;25.340;2024-01-15T04:17:37;14.77;;;7.45;;
43835;SDS011;39345;43.964;25.340;2024-01-15T04:20:04;12.65;;;7.43;;
43835;SDS011;39345;43.964;25.340;2024-01-15T04:22:33;18.45;;;9.52;;
43835;SDS011;39345;43.964;25.340;2024-01-15T04:25:01;17.58;;;8.73;;
43835;SDS011;39345;43.964;25.340;2024-01-15T04:27:29;18.73;;;9.13;;
43835;SDS011;39345;43.964;25.340;2024-01-15T04:29:56;20.85;;;11.02;;
43835;SDS011;39345;43.964;25.340;2024-01-15T04:32:24;20.85;;;11.15;;
43835;SDS011;39345;43.964;25.340;2024-01-15T04:34:52;19.83;;;11.23;;
43835;SDS011;39345;43.964;25.340;2024-01-15T04:37:19;23.08;;;11.48;;
43835;SDS011;39345;43.964;25.340;2024-01-15T04:39:47;19.98;;;10.90;;
43835;SDS011;39345;43.964;25.340;2024-01-15T04:42:15;20.40;;;11.30;;
43835;SDS011;39345;43.964;25.340;2024-01-15T04:44:42;23.95;;;11.38;;
43835;SDS011;39345;43.964;25.340;2024-01-15T04:47:10;22.30;;;10.55;;
43835;SDS011;39345;43.964;25.340;2024-01-15T04:49:37;21.85;;;10.95;;
43835;SDS011;39345;43.964;25.340;2024-01-15T04:52:05;20.05;;;10.30;;
43835;SDS011;39345;43.964;25.340;2024-01-15T04:54:33;20.60;;;11.43;;
43835;SDS011;39345;43.964;25.340;2024-01-15T04:57:00;21.38;;;11.60;;
43835;SDS011;39345;43.964;25.340;2024-01-15T04:59:28;22.80;;;12.57;;
43835;SDS011;39345;43.964;25.340;2024-01-15T05:01:56;21.83;;;12.85;;
43835;SDS011;39345;43.964;25.340;2024-01-15T05:04:23;23.60;;;12.15;;
43835;SDS011;39345;43.964;25.340;2024-01-15T05:06:51;23.77;;;12.13;;
43835;SDS011;39345;43.964;25.340;2024-01-15T05:09:19;24.92;;;13.63;;
43835;SDS011;39345;43.964;25.340;2024-01-15T05:11:47;27.00;;;15.80;;
43835;SDS011;39345;43.964;25.340;2024-01-15T05:14:14;28.85;;;17.38;;
43835;SDS011;39345;43.964;25.340;2024-01-15T05:16:48;24.10;;;14.43;;
43835;SDS011;39345;43.964;25.340;2024-01-15T05:19:17;19.75;;;10.48;;
43835;SDS011;39345;43.964;25.340;2024-01-15T05:21:45;16.85;;;8.52;;
43835;SDS011;39345;43.964;25.340;2024-01-15T05:24:13;17.42;;;9.23;;
43835;SDS011;39345;43.964;25.340;2024-01-15T05:26:40;21.40;;;11.35;;
43835;SDS011;39345;43.964;25.340;2024-01-15T05:29:08;19.98;;;11.63;;
43835;SDS011;39345;43.964;25.340;2024-01-15T05:31:36;24.23;;;13.02;;
43835;SDS011;39345;43.964;25.340;2024-01-15T05:34:03;21.88;;;11.70;;
43835;SDS011;39345;43.964;25.340;2024-01-15T05:36:31;70.53;;;29.15;;
43835;SDS011;39345;43.964;25.340;2024-01-15T05:38:59;118.13;;;41.55;;
43835;SDS011;39345;43.964;25.340;2024-01-15T05:41:26;80.00;;;33.33;;
43835;SDS011;39345;43.964;25.340;2024-01-15T05:43:54;91.07;;;34.58;;
43835;SDS011;39345;43.964;25.340;2024-01-15T05:46:22;95.68;;;37.65;;
43835;SDS011;39345;43.964;25.340;2024-01-15T05:48:49;101.63;;;41.53;;
43835;SDS011;39345;43.964;25.340;2024-01-15T05:51:17;109.80;;;43.03;;
43835;SDS011;39345;43.964;25.340;2024-01-15T05:53:45;137.65;;;54.05;;
43835;SDS011;39345;43.964;25.340;2024-01-15T05:56:15;129.30;;;55.47;;
43835;SDS011;39345;43.964;25.340;2024-01-15T05:58:43;139.00;;;54.70;;
43835;SDS011;39345;43.964;25.340;2024-01-15T06:01:10;117.90;;;50.42;;
43835;SDS011;39345;43.964;25.340;2024-01-15T06:03:38;108.32;;;46.97;;
43835;SDS011;39345;43.964;25.340;2024-01-15T06:06:06;109.40;;;47.47;;
43835;SDS011;39345;43.964;25.340;2024-01-15T06:08:33;90.72;;;43.08;;
43835;SDS011;39345;43.964;25.340;2024-01-15T06:11:01;93.75;;;43.83;;
43835;SDS011;39345;43.964;25.340;2024-01-15T06:13:29;82.03;;;40.78;;
43835;SDS011;39345;43.964;25.340;2024-01-15T06:15:57;81.15;;;40.65;;
43835;SDS011;39345;43.964;25.340;2024-01-15T06:18:24;79.90;;;40.20;;
43835;SDS011;39345;43.964;25.340;2024-01-15T06:20:52;90.65;;;44.35;;
43835;SDS011;39345;43.964;25.340;2024-01-15T06:23:20;97.90;;;49.75;;
43835;SDS011;39345;43.964;25.340;2024-01-15T06:25:48;108.85;;;54.15;;
43835;SDS011;39345;43.964;25.340;2024-01-15T06:28:15;100.65;;;50.95;;
43835;SDS011;39345;43.964;25.340;2024-01-15T06:30:43;104.45;;;49.50;;
43835;SDS011;39345;43.964;25.340;2024-01-15T06:33:11;96.85;;;46.50;;
43835;SDS011;39345;43.964;25.340;2024-01-15T06:35:38;92.63;;;49.17;;
43835;SDS011;39345;43.964;25.340;2024-01-15T06:38:06;98.00;;;53.53;;
43835;SDS011;39345;43.964;25.340;2024-01-15T06:40:33;107.88;;;58.95;;
43835;SDS011;39345;43.964;25.340;2024-01-15T06:43:01;100.15;;;56.30;;
43835;SDS011;39345;43.964;25.340;2024-01-15T06:45:29;108.43;;;58.72;;
43835;SDS011;39345;43.964;25.340;2024-01-15T06:47:56;113.38;;;58.33;;
43835;SDS011;39345;43.964;25.340;2024-01-15T06:50:24;103.20;;;53.15;;
43835;SDS011;39345;43.964;25.340;2024-01-15T06:52:52;93.68;;;48.65;;
43835;SDS011;39345;43.964;25.340;2024-01-15T06:55:19;94.40;;;47.67;;
43835;SDS011;39345;43.964;25.340;2024-01-15T06:57:47;110.53;;;58.75;;
43835;SDS011;39345;43.964;25.340;2024-01-15T07:00:15;116.75;;;62.58;;
43835;SDS011;39345;43.964;25.340;2024-01-15T07:02:43;91.85;;;49.08;;
43835;SDS011;39345;43.964;25.340;2024-01-15T07:05:10;101.93;;;51.63;;
43835;SDS011;39345;43.964;25.340;2024-01-15T07:07:38;88.72;;;51.03;;
43835;SDS011;39345;43.964;25.340;2024-01-15T07:10:06;91.00;;;50.80;;
43835;SDS011;39345;43.964;25.340;2024-01-15T07:12:33;84.70;;;48.33;;
43835;SDS011;39345;43.964;25.340;2024-01-15T07:15:01;88.22;;;46.42;;
43835;SDS011;39345;43.964;25.340;2024-01-15T07:17:30;84.25;;;44.63;;
43835;SDS011;39345;43.964;25.340;2024-01-15T07:19:58;81.80;;;45.08;;
43835;SDS011;39345;43.964;25.340;2024-01-15T07:22:25;75.20;;;43.50;;
43835;SDS011;39345;43.964;25.340;2024-01-15T07:24:53;82.18;;;44.15;;
43835;SDS011;39345;43.964;25.340;2024-01-15T07:27:21;74.82;;;41.65;;
43835;SDS011;39345;43.964;25.340;2024-01-15T07:29:48;76.80;;;41.72;;
43835;SDS011;39345;43.964;25.340;2024-01-15T07:32:16;81.63;;;45.22;;
43835;SDS011;39345;43.964;25.340;2024-01-15T07:34:44;70.28;;;41.03;;
43835;SDS011;39345;43.964;25.340;2024-01-15T07:37:11;70.15;;;37.20;;
43835;SDS011;39345;43.964;25.340;2024-01-15T07:39:39;61.65;;;34.42;;
43835;SDS011;39345;43.964;25.340;2024-01-15T07:42:10;58.00;;;31.63;;
43835;SDS011;39345;43.964;25.340;2024-01-15T07:44:38;48.22;;;30.27;;
43835;SDS011;39345;43.964;25.340;2024-01-15T07:47:05;52.50;;;28.48;;
43835;SDS011;39345;43.964;25.340;2024-01-15T07:49:35;52.35;;;30.35;;
43835;SDS011;39345;43.964;25.340;2024-01-15T07:52:03;42.50;;;24.33;;
43835;SDS011;39345;43.964;25.340;2024-01-15T07:54:31;42.50;;;22.85;;
43835;SDS011;39345;43.964;25.340;2024-01-15T07:57:00;44.08;;;25.02;;
43835;SDS011;39345;43.964;25.340;2024-01-15T07:59:29;35.88;;;20.95;;
43835;SDS011;39345;43.964;25.340;2024-01-15T08:01:58;35.33;;;20.25;;
43835;SDS011;39345;43.964;25.340;2024-01-15T08:04:27;33.13;;;20.05;;
43835;SDS011;39345;43.964;25.340;2024-01-15T08:06:54;35.72;;;19.40;;
43835;SDS011;39345;43.964;25.340;2024-01-15T08:09:23;34.33;;;18.40;;
43835;SDS011;39345;43.964;25.340;2024-01-15T08:11:51;32.05;;;20.02;;
43835;SDS011;39345;43.964;25.340;2024-01-15T08:14:19;33.88;;;18.55;;
43835;SDS011;39345;43.964;25.340;2024-01-15T08:16:46;31.42;;;17.15;;
43835;SDS011;39345;43.964;25.340;2024-01-15T08:19:14;27.90;;;16.27;;
43835;SDS011;39345;43.964;25.340;2024-01-15T08:21:42;34.92;;;18.65;;
43835;SDS011;39345;43.964;25.340;2024-01-15T08:24:09;34.78;;;17.20;;
43835;SDS011;39345;43.964;25.340;2024-01-15T08:26:37;31.25;;;16.92;;
43835;SDS011;39345;43.964;25.340;2024-01-15T08:29:05;31.90;;;16.92;;
43835;SDS011;39345;43.964;25.340;2024-01-15T08:31:32;36.05;;;19.92;;
43835;SDS011;39345;43.964;25.340;2024-01-15T08:34:00;29.95;;;18.25;;
43835;SDS011;39345;43.964;25.340;2024-01-15T08:36:28;31.52;;;17.42;;
43835;SDS011;39345;43.964;25.340;2024-01-15T08:38:57;29.95;;;16.33;;
43835;SDS011;39345;43.964;25.340;2024-01-15T08:41:24;32.58;;;16.63;;
43835;SDS011;39345;43.964;25.340;2024-01-15T08:43:52;27.30;;;15.48;;
43835;SDS011;39345;43.964;25.340;2024-01-15T08:46:19;24.98;;;13.30;;
43835;SDS011;39345;43.964;25.340;2024-01-15T08:48:47;31.90;;;15.82;;
43835;SDS011;39345;43.964;25.340;2024-01-15T08:51:15;30.73;;;14.85;;
43835;SDS011;39345;43.964;25.340;2024-01-15T08:53:42;24.00;;;13.88;;
43835;SDS011;39345;43.964;25.340;2024-01-15T08:56:10;29.33;;;13.93;;
43835;SDS011;39345;43.964;25.340;2024-01-15T08:58:38;30.65;;;15.32;;
43835;SDS011;39345;43.964;25.340;2024-01-15T09:01:05;28.42;;;15.30;;
43835;SDS011;39345;43.964;25.340;2024-01-15T09:03:33;28.80;;;15.25;;
43835;SDS011;39345;43.964;25.340;2024-01-15T09:06:01;25.80;;;15.95;;
43835;SDS011;39345;43.964;25.340;2024-01-15T09:08:29;27.83;;;15.25;;
43835;SDS011;39345;43.964;25.340;2024-01-15T09:10:57;31.95;;;15.57;;
43835;SDS011;39345;43.964;25.340;2024-01-15T09:13:24;29.90;;;15.45;;
43835;SDS011;39345;43.964;25.340;2024-01-15T09:15:52;31.33;;;16.30;;
43835;SDS011;39345;43.964;25.340;2024-01-15T09:18:20;29.65;;;16.60;;
43835;SDS011;39345;43.964;25.340;2024-01-15T09:20:47;30.55;;;16.65;;
43835;SDS011;39345;43.964;25.340;2024-01-15T09:23:15;33.45;;;16.25;;
43835;SDS011;39345;43.964;25.340;2024-01-15T09:25:43;28.25;;;15.93;;
43835;SDS011;39345;43.964;25.340;2024-01-15T09:28:10;29.58;;;16.48;;
43835;SDS011;39345;43.964;25.340;2024-01-15T09:30:38;31.52;;;14.80;;
43835;SDS011;39345;43.964;25.340;2024-01-15T09:33:06;30.20;;;15.88;;
43835;SDS011;39345;43.964;25.340;2024-01-15T09:35:33;30.63;;;16.58;;
43835;SDS011;39345;43.964;25.340;2024-01-15T09:38:01;30.98;;;15.10;;
43835;SDS011;39345;43.964;25.340;2024-01-15T09:40:31;28.70;;;15.65;;
43835;SDS011;39345;43.964;25.340;2024-01-15T09:43:02;25.85;;;15.73;;
43835;SDS011;39345;43.964;25.340;2024-01-15T09:45:30;26.52;;;15.02;;
43835;SDS011;39345;43.964;25.340;2024-01-15T09:47:58;28.95;;;15.88;;
43835;SDS011;39345;43.964;25.340;2024-01-15T09:50:25;26.85;;;14.80;;
43835;SDS011;39345;43.964;25.340;2024-01-15T09:52:54;24.50;;;13.50;;
43835;SDS011;39345;43.964;25.340;2024-01-15T09:55:23;19.20;;;13.48;;
43835;SDS011;39345;43.964;25.340;2024-01-15T09:57:52;21.85;;;11.73;;
43835;SDS011;39345;43.964;25.340;2024-01-15T10:00:20;22.30;;;12.00;;
43835;SDS011;39345;43.964;25.340;2024-01-15T10:02:48;23.80;;;12.38;;
43835;SDS011;39345;43.964;25.340;2024-01-15T10:05:16;22.95;;;11.52;;
43835;SDS011;39345;43.964;25.340;2024-01-15T10:07:43;23.08;;;13.00;;
43835;SDS011;39345;43.964;25.340;2024-01-15T10:10:13;19.25;;;12.95;;
43835;SDS011;39345;43.964;25.340;2024-01-15T10:12:40;21.60;;;12.02;;
43835;SDS011;39345;43.964;25.340;2024-01-15T10:15:09;20.50;;;12.50;;
43835;SDS011;39345;43.964;25.340;2024-01-15T10:17:39;18.50;;;9.90;;
43835;SDS011;39345;43.964;25.340;2024-01-15T10:20:10;15.10;;;8.65;;
43835;SDS011;39345;43.964;25.340;2024-01-15T10:22:40;14.20;;;8.05;;
43835;SDS011;39345;43.964;25.340;2024-01-15T10:25:11;14.60;;;8.18;;
43835;SDS011;39345;43.964;25.340;2024-01-15T10:27:40;8.07;;;5.38;;
43835;SDS011;39345;43.964;25.340;2024-01-15T10:30:08;11.88;;;6.22;;
43835;SDS011;39345;43.964;25.340;2024-01-15T10:32:36;14.00;;;6.68;;
43835;SDS011;39345;43.964;25.340;2024-01-15T10:35:04;12.98;;;7.43;;
43835;SDS011;39345;43.964;25.340;2024-01-15T10:37:35;16.00;;;9.07;;
43835;SDS011;39345;43.964;25.340;2024-01-15T10:40:02;15.68;;;8.40;;
43835;SDS011;39345;43.964;25.340;2024-01-15T10:42:33;13.65;;;7.32;;
43835;SDS011;39345;43.964;25.340;2024-01-15T10:45:01;11.68;;;7.30;;
43835;SDS011;39345;43.964;25.340;2024-01-15T10:47:29;12.70;;;6.90;;
43835;SDS011;39345;43.964;25.340;2024-01-15T10:49:57;11.50;;;6.72;;
43835;SDS011;39345;43.964;25.340;2024-01-15T10:52:25;13.10;;;7.05;;
43835;SDS011;39345;43.964;25.340;2024-01-15T10:54:53;12.32;;;6.70;;
43835;SDS011;39345;43.964;25.340;2024-01-15T10:57:21;11.88;;;6.88;;
43835;SDS011;39345;43.964;25.340;2024-01-15T10:59:49;15.07;;;7.53;;
43835;SDS011;39345;43.964;25.340;2024-01-15T11:02:17;12.45;;;6.40;;
43835;SDS011;39345;43.964;25.340;2024-01-15T11:04:45;11.25;;;6.18;;
43835;SDS011;39345;43.964;25.340;2024-01-15T11:07:13;13.45;;;6.65;;
43835;SDS011;39345;43.964;25.340;2024-01-15T11:09:41;11.60;;;6.20;;
43835;SDS011;39345;43.964;25.340;2024-01-15T11:12:12;13.85;;;6.97;;
43835;SDS011;39345;43.964;25.340;2024-01-15T11:14:41;13.13;;;7.03;;
43835;SDS011;39345;43.964;25.340;2024-01-15T11:17:10;10.82;;;6.25;;
43835;SDS011;39345;43.964;25.340;2024-01-15T11:19:43;11.27;;;6.32;;
43835;SDS011;39345;43.964;25.340;2024-01-15T11:25:01;11.32;;;6.80;;
43835;SDS011;39345;43.964;25.340;2024-01-15T11:27:42;9.77;;;6.75;;
43835;SDS011;39345;43.964;25.340;2024-01-15T11:30:13;11.60;;;6.45;;
43835;SDS011;39345;43.964;25.340;2024-01-15T11:32:41;10.00;;;6.72;;
43835;SDS011;39345;43.964;25.340;2024-01-15T11:35:10;9.45;;;6.25;;
43835;SDS011;39345;43.964;25.340;2024-01-15T11:40:19;15.43;;;7.57;;
43835;SDS011;39345;43.964;25.340;2024-01-15T11:42:47;10.25;;;6.68;;
43835;SDS011;39345;43.964;25.340;2024-01-15T11:45:15;10.82;;;6.20;;
43835;SDS011;39345;43.964;25.340;2024-01-15T11:50:19;12.18;;;5.60;;
43835;SDS011;39345;43.964;25.340;2024-01-15T11:52:55;10.68;;;6.20;;
43835;SDS011;39345;43.964;25.340;2024-01-15T11:55:36;9.13;;;5.32;;
43835;SDS011;39345;43.964;25.340;2024-01-15T11:58:10;11.70;;;5.72;;
43835;SDS011;39345;43.964;25.340;2024-01-15T12:00:43;9.55;;;5.70;;
43835;SDS011;39345;43.964;25.340;2024-01-15T12:03:11;10.57;;;6.18;;
43835;SDS011;39345;43.964;25.340;2024-01-15T12:05:39;12.88;;;6.45;;
43835;SDS011;39345;43.964;25.340;2024-01-15T12:08:08;12.40;;;5.65;;
43835;SDS011;39345;43.964;25.340;2024-01-15T12:10:39;12.15;;;6.40;;
43835;SDS011;39345;43.964;25.340;2024-01-15T12:13:09;13.10;;;6.75;;
43835;SDS011;39345;43.964;25.340;2024-01-15T12:15:38;11.35;;;6.22;;
43835;SDS011;39345;43.964;25.340;2024-01-15T12:18:12;11.98;;;6.78;;
43835;SDS011;39345;43.964;25.340;2024-01-15T12:20:41;12.25;;;6.20;;
43835;SDS011;39345;43.964;25.340;2024-01-15T12:23:09;12.27;;;6.07;;
43835;SDS011;39345;43.964;25.340;2024-01-15T12:25:38;11.90;;;5.97;;
43835;SDS011;39345;43.964;25.340;2024-01-15T12:28:05;13.95;;;7.10;;
43835;SDS011;39345;43.964;25.340;2024-01-15T12:30:33;12.73;;;7.25;;
43835;SDS011;39345;43.964;25.340;2024-01-15T12:33:06;14.90;;;7.65;;
43835;SDS011;39345;43.964;25.340;2024-01-15T12:35:35;13.18;;;7.85;;
43835;SDS011;39345;43.964;25.340;2024-01-15T12:38:03;14.25;;;8.82;;
43835;SDS011;39345;43.964;25.340;2024-01-15T12:40:32;16.83;;;8.52;;
43835;SDS011;39345;43.964;25.340;2024-01-15T12:43:03;11.75;;;6.25;;
43835;SDS011;39345;43.964;25.340;2024-01-15T12:45:30;14.68;;;6.72;;
43835;SDS011;39345;43.964;25.340;2024-01-15T12:47:58;13.95;;;6.85;;
43835;SDS011;39345;43.964;25.340;2024-01-15T12:50:27;16.27;;;7.85;;
43835;SDS011;39345;43.964;25.340;2024-01-15T12:52:55;14.13;;;7.28;;
43835;SDS011;39345;43.964;25.340;2024-01-15T12:55:22;26.45;;;8.23;;
43835;SDS011;39345;43.964;25.340;2024-01-15T12:57:50;17.52;;;8.02;;
43835;SDS011;39345;43.964;25.340;2024-01-15T13:00:21;16.38;;;8.40;;
43835;SDS011;39345;43.964;25.340;2024-01-15T13:02:49;14.35;;;7.40;;
43835;SDS011;39345;43.964;25.340;2024-01-15T13:05:16;10.40;;;6.07;;
43835;SDS011;39345;43.964;25.340;2024-01-15T13:07:45;11.82;;;6.00;;
43835;SDS011;39345;43.964;25.340;2024-01-15T13:10:12;11.38;;;6.38;;
43835;SDS011;39345;43.964;25.340;2024-01-15T13:12:40;10.18;;;5.15;;
43835;SDS011;39345;43.964;25.340;2024-01-15T13:15:08;12.18;;;5.55;;
43835;SDS011;39345;43.964;25.340;2024-01-15T13:17:40;10.60;;;6.07;;
43835;SDS011;39345;43.964;25.340;2024-01-15T13:20:09;17.42;;;6.95;;
43835;SDS011;39345;43.964;25.340;2024-01-15T13:22:38;18.40;;;6.68;;
43835;SDS011;39345;43.964;25.340;2024-01-15T13:25:07;14.88;;;5.95;;
43835;SDS011;39345;43.964;25.340;2024-01-15T13:27:35;8.20;;;4.90;;
43835;SDS011;39345;43.964;25.340;2024-01-15T13:30:05;15.05;;;5.68;;
43835;SDS011;39345;43.964;25.340;2024-01-15T13:32:37;14.40;;;5.50;;
43835;SDS011;39345;43.964;25.340;2024-01-15T13:35:04;13.13;;;5.68;;
43835;SDS011;39345;43.964;25.340;2024-01-15T13:37:36;13.60;;;4.88;;
43835;SDS011;39345;43.964;25.340;2024-01-15T13:40:05;15.82;;;5.28;;
43835;SDS011;39345;43.964;25.340;2024-01-15T13:42:34;23.10;;;6.32;;
43835;SDS011;39345;43.964;25.340;2024-01-15T13:45:05;20.05;;;7.47;;
43835;SDS011;39345;43.964;25.340;2024-01-15T13:47:34;16.20;;;7.03;;
43835;SDS011;39345;43.964;25.340;2024-01-15T13:50:03;18.65;;;6.78;;
43835;SDS011;39345;43.964;25.340;2024-01-15T13:52:31;14.13;;;6.93;;
43835;SDS011;39345;43.964;25.340;2024-01-15T13:54:58;14.32;;;6.63;;
43835;SDS011;39345;43.964;25.340;2024-01-15T13:57:26;9.05;;;5.38;;
43835;SDS011;39345;43.964;25.340;2024-01-15T13:59:54;11.52;;;5.57;;
43835;SDS011;39345;43.964;25.340;2024-01-15T14:02:21;15.27;;;6.68;;
43835;SDS011;39345;43.964;25.340;2024-01-15T14:04:51;15.75;;;7.13;;
43835;SDS011;39345;43.964;25.340;2024-01-15T14:07:19;22.90;;;11.43;;
43835;SDS011;39345;43.964;25.340;2024-01-15T14:09:47;16.73;;;8.65;;
43835;SDS011;39345;43.964;25.340;2024-01-15T14:12:15;19.10;;;9.18;;
43835;SDS011;39345;43.964;25.340;2024-01-15T14:14:43;17.33;;;9.27;;
43835;SDS011;39345;43.964;25.340;2024-01-15T14:17:10;16.52;;;9.73;;
43835;SDS011;39345;43.964;25.340;2024-01-15T14:19:38;18.83;;;9.40;;
43835;SDS011;39345;43.964;25.340;2024-01-15T14:22:06;16.65;;;9.52;;
43835;SDS011;39345;43.964;25.340;2024-01-15T14:24:33;25.17;;;10.57;;
43835;SDS011;39345;43.964;25.340;2024-01-15T14:27:01;17.40;;;10.27;;
43835;SDS011;39345;43.964;25.340;2024-01-15T14:29:29;19.55;;;11.60;;